createdAt,value
2022-08-16T00:00:04.131Z,72147.34
2022-08-16T00:00:42.743Z,72149.34
2022-08-16T00:01:15.658Z,72145.34
2022-08-16T00:01:48.351Z,72145.34
2022-08-16T00:02:24.645Z,72151.34
2022-08-16T00:02:57.565Z,72147.34
2022-08-16T00:03:29.902Z,72155.34
2022-08-16T00:04:12.691Z,72151.34
2022-08-16T00:04:45.071Z,72151.34
2022-08-16T00:05:25.275Z,72149.34
2022-08-16T00:06:02.550Z,72153.34
2022-08-16T00:06:36.572Z,72153.34
2022-08-16T00:07:11.899Z,72155.34
2022-08-16T00:07:47.334Z,72155.34
2022-08-16T00:08:37.182Z,72155.34
2022-08-16T00:09:13.189Z,72159.31
2022-08-16T00:09:46.550Z,72153.34
2022-08-16T00:10:20.992Z,72155.34
2022-08-16T00:10:56.399Z,72159.31
2022-08-16T00:11:29.542Z,72153.34
2022-08-16T00:12:05.293Z,72159.31
2022-08-16T00:12:41.713Z,72159.31
2022-08-16T00:13:16.720Z,72157.34
2022-08-16T00:13:53.947Z,72159.31
2022-08-16T00:14:30.356Z,72163.31
2022-08-16T00:15:11.752Z,72159.31
2022-08-16T00:15:51.676Z,72159.31
2022-08-16T00:17:01.326Z,72159.31
2022-08-16T00:17:22.321Z,72163.31
2022-08-16T00:17:56.931Z,72167.31
2022-08-16T00:18:32.460Z,72163.31
2022-08-16T00:19:04.975Z,72159.31
2022-08-16T00:19:41.681Z,72165.31
2022-08-16T00:20:15.005Z,72167.31
2022-08-16T00:20:48.366Z,72163.31
2022-08-16T00:21:25.734Z,72167.31
2022-08-16T00:22:03.165Z,72165.31
2022-08-16T00:22:44.057Z,72165.31
2022-08-16T00:23:17.094Z,72163.31
2022-08-16T00:23:49.427Z,72163.31
2022-08-16T00:24:32.750Z,72161.31
2022-08-16T00:25:10.457Z,72163.31
2022-08-16T00:26:33.390Z,72167.31
2022-08-16T00:26:43.729Z,72163.31
2022-08-16T00:27:19.309Z,72165.31
2022-08-16T00:27:55.345Z,72163.31
2022-08-16T00:28:28.579Z,72167.31
2022-08-16T00:29:02.309Z,72159.31
2022-08-16T00:29:37.269Z,72169.31
2022-08-16T00:30:19.369Z,72167.31
2022-08-16T00:30:52.411Z,72165.31
2022-08-16T00:31:47.124Z,72167.31
2022-08-16T00:32:21.163Z,72169.31
2022-08-16T00:33:00.105Z,72167.31
2022-08-16T00:33:32.513Z,72169.31
2022-08-16T00:34:04.839Z,72171.31
2022-08-16T00:34:52.215Z,72171.31
2022-08-16T00:35:30.893Z,72171.31
2022-08-16T00:36:12.330Z,72167.31
2022-08-16T00:36:47.128Z,72167.31
2022-08-16T00:37:20.722Z,72171.31
2022-08-16T00:37:59.330Z,72167.31
2022-08-16T00:38:41.068Z,72171.31
2022-08-16T00:39:19.534Z,72167.31
2022-08-16T00:39:58.256Z,72155.34
2022-08-16T00:40:36.583Z,72139.38
2022-08-16T00:41:12.270Z,72141.38
2022-08-16T00:41:46.694Z,72135.38
2022-08-16T00:42:30.079Z,72151.34
2022-08-16T00:43:11.644Z,72147.34
2022-08-16T00:43:45.047Z,72151.34
2022-08-16T00:44:22.162Z,72153.34
2022-08-16T00:45:09.674Z,72159.31
2022-08-16T00:45:57.920Z,72165.31
2022-08-16T00:46:37.490Z,72163.31
2022-08-16T00:47:26.394Z,72167.31
2022-08-16T00:48:03.796Z,72165.31
2022-08-16T00:48:59.326Z,72167.31
2022-08-16T00:49:33.318Z,72169.31
2022-08-16T00:50:12.522Z,72169.31
2022-08-16T00:50:48.259Z,72171.31
2022-08-16T00:51:29.529Z,72171.31
2022-08-16T00:52:02.160Z,72171.31
2022-08-16T00:52:37.949Z,72167.31
2022-08-16T00:53:19.309Z,72171.31
2022-08-16T00:53:53.279Z,72171.31
2022-08-16T00:54:30.419Z,72171.31
2022-08-16T00:55:08.487Z,72173.28
2022-08-16T00:55:46.933Z,72169.31
2022-08-16T00:56:57.096Z,72171.31
2022-08-16T00:57:17.747Z,72171.31
2022-08-16T00:57:59.854Z,72171.31
2022-08-16T00:58:38.386Z,72171.31
2022-08-16T00:59:15.235Z,72169.31
2022-08-16T00:59:57.438Z,72171.31
2022-08-16T01:00:33.470Z,72171.31
2022-08-16T01:01:08.422Z,72169.31
2022-08-16T01:01:44.761Z,72169.31
2022-08-16T01:02:46.870Z,72165.31
2022-08-16T01:03:15.650Z,72161.31
2022-08-16T01:03:51.838Z,72157.34
2022-08-16T01:04:30.924Z,72159.31
2022-08-16T01:05:09.045Z,72159.31
2022-08-16T01:05:44.569Z,72163.31
2022-08-16T01:06:40.248Z,72161.31
2022-08-16T01:07:17.646Z,72163.31
2022-08-16T01:07:51.965Z,72169.31
2022-08-16T01:08:35.088Z,72163.31
2022-08-16T01:09:09.494Z,72171.31
2022-08-16T01:09:42.984Z,72171.31
2022-08-16T01:10:18.023Z,72167.31
2022-08-16T01:10:50.870Z,72171.31
2022-08-16T01:11:24.110Z,72171.31
2022-08-16T01:11:59.552Z,72163.31
2022-08-16T01:12:32.006Z,72173.28
2022-08-16T01:13:12.163Z,72169.31
2022-08-16T01:13:47.718Z,72171.31
2022-08-16T01:14:29.894Z,72167.31
2022-08-16T01:15:04.025Z,72169.31
2022-08-16T01:15:42.972Z,72171.31
2022-08-16T01:16:20.249Z,72163.31
2022-08-16T01:16:53.877Z,72167.31
2022-08-16T01:17:29.942Z,72165.31
2022-08-16T01:18:39.096Z,72167.31
2022-08-16T01:19:16.883Z,72167.31
2022-08-16T01:19:53.145Z,72163.31
2022-08-16T01:20:34.228Z,72163.31
2022-08-16T01:21:33.931Z,72167.31
2022-08-16T01:22:49.943Z,72165.31
2022-08-16T01:23:17.167Z,72171.31
2022-08-16T01:24:05.842Z,72163.31
2022-08-16T01:25:04.518Z,72171.31
2022-08-16T01:25:39.526Z,72167.31
2022-08-16T01:26:34.334Z,72167.31
2022-08-16T01:27:11.226Z,72171.31
2022-08-16T01:27:50.779Z,72177.28
2022-08-16T01:28:30.897Z,72171.31
2022-08-16T01:29:05.437Z,72171.31
2022-08-16T01:29:58.227Z,72171.31
2022-08-16T01:30:39.737Z,72171.31
2022-08-16T01:31:22.935Z,72171.31
2022-08-16T01:32:04.146Z,72171.31
2022-08-16T01:32:45.182Z,72167.31
2022-08-16T01:33:36.035Z,72167.31
2022-08-16T01:34:09.234Z,72167.31
2022-08-16T01:35:00.616Z,72171.31
2022-08-16T01:35:36.166Z,72171.31
2022-08-16T01:36:11.991Z,72165.31
2022-08-16T01:36:55.051Z,72167.31
2022-08-16T01:37:39.391Z,72171.31
2022-08-16T01:38:25.702Z,72167.31
2022-08-16T01:39:11.725Z,72163.31
2022-08-16T01:39:48.649Z,72163.31
2022-08-16T01:40:26.115Z,72165.31
2022-08-16T01:41:01.886Z,72163.31
2022-08-16T01:41:41.972Z,72167.31
2022-08-16T01:42:14.906Z,72163.31
2022-08-16T01:42:53.913Z,72159.31
2022-08-16T01:43:31.581Z,72163.31
2022-08-16T01:44:05.029Z,72161.31
2022-08-16T01:44:39.565Z,72163.31
2022-08-16T01:45:14.802Z,72159.31
2022-08-16T01:45:57.825Z,72159.31
2022-08-16T01:46:39.632Z,72163.31
2022-08-16T01:47:24.983Z,72159.31
2022-08-16T01:48:01.802Z,72163.31
2022-08-16T01:48:54.928Z,72159.31
2022-08-16T01:49:45.530Z,72163.31
2022-08-16T01:50:43.274Z,72159.31
2022-08-16T01:51:20.404Z,72159.31
2022-08-16T01:52:00.979Z,72159.31
2022-08-16T01:52:59.755Z,72163.31
2022-08-16T01:53:55.255Z,72167.31
2022-08-16T01:54:37.594Z,72163.31
2022-08-16T01:55:11.008Z,72159.31
2022-08-16T01:55:54.111Z,72163.31
2022-08-16T01:56:27.360Z,72161.31
2022-08-16T01:57:04.750Z,72159.31
2022-08-16T01:57:37.414Z,72155.34
2022-08-16T01:58:12.168Z,72159.31
2022-08-16T01:58:48.062Z,72159.31
2022-08-16T01:59:25.379Z,72163.31
2022-08-16T01:59:57.735Z,72161.31
2022-08-16T02:00:31.198Z,72163.31
2022-08-16T02:01:05.088Z,72163.31
2022-08-16T02:01:44.163Z,72159.31
2022-08-16T02:02:27.277Z,72163.31
2022-08-16T02:03:02.410Z,72159.31
2022-08-16T02:03:40.005Z,72161.31
2022-08-16T02:04:12.647Z,72163.31
2022-08-16T02:05:09.921Z,72163.31
2022-08-16T02:05:51.976Z,72165.31
2022-08-16T02:06:34.546Z,72163.31
2022-08-16T02:07:11.366Z,72167.31
2022-08-16T02:07:44.215Z,72163.31
2022-08-16T02:08:33.452Z,72165.31
2022-08-16T02:09:11.993Z,72169.31
2022-08-16T02:09:58.864Z,72171.31
2022-08-16T02:10:45.954Z,72165.31
2022-08-16T02:11:18.746Z,72167.31
2022-08-16T02:11:58.942Z,72167.31
2022-08-16T02:12:40.156Z,72167.31
2022-08-16T02:13:27.621Z,72163.31
2022-08-16T02:14:03.753Z,72161.31
2022-08-16T02:14:37.189Z,72163.31
2022-08-16T02:15:10.181Z,72161.31
2022-08-16T02:15:45.578Z,72159.31
2022-08-16T02:16:19.070Z,72157.34
2022-08-16T02:16:53.970Z,72159.31
2022-08-16T02:17:26.418Z,72159.31
2022-08-16T02:18:04.209Z,72163.31
2022-08-16T02:18:40.417Z,72155.34
2022-08-16T02:19:16.290Z,72159.31
2022-08-16T02:19:59.702Z,72157.34
2022-08-16T02:20:36.104Z,72155.34
2022-08-16T02:21:12.617Z,72155.34
2022-08-16T02:22:08.224Z,72159.31
2022-08-16T02:22:42.095Z,72155.34
2022-08-16T02:23:17.211Z,72159.31
2022-08-16T02:23:55.775Z,72155.34
2022-08-16T02:24:31.357Z,72155.34
2022-08-16T02:25:11.551Z,72153.34
2022-08-16T02:25:52.633Z,72155.34
2022-08-16T02:26:26.746Z,72155.34
2022-08-16T02:26:59.504Z,72155.34
2022-08-16T02:27:34.439Z,72153.34
2022-08-16T02:28:06.966Z,72155.34
2022-08-16T02:28:47.120Z,72155.34
2022-08-16T02:29:23.451Z,72159.31
2022-08-16T02:30:07.465Z,72157.34
2022-08-16T02:30:44.108Z,72157.34
2022-08-16T02:31:20.965Z,72159.31
2022-08-16T02:33:01.119Z,72161.31
2022-08-16T02:33:10.523Z,72161.31
2022-08-16T02:33:50.645Z,72159.31
2022-08-16T02:34:40.400Z,72159.31
2022-08-16T02:35:17.362Z,72159.31
2022-08-16T02:35:58.285Z,72159.31
2022-08-16T02:36:47.688Z,72161.31
2022-08-16T02:37:24.050Z,72163.31
2022-08-16T02:38:19.241Z,72161.31
2022-08-16T02:38:52.234Z,72163.31
2022-08-16T02:39:25.954Z,72161.31
2022-08-16T02:40:05.912Z,72163.31
2022-08-16T02:40:42.511Z,72161.31
2022-08-16T02:41:15.508Z,72161.31
2022-08-16T02:41:54.008Z,72163.31
2022-08-16T02:42:28.505Z,72161.31
2022-08-16T02:43:00.976Z,72159.31
2022-08-16T02:43:39.031Z,72159.31
2022-08-16T02:44:14.026Z,72163.31
2022-08-16T02:44:52.470Z,72155.34
2022-08-16T02:45:28.009Z,72161.31
2022-08-16T02:46:01.390Z,72163.31
2022-08-16T02:46:37.530Z,72163.31
2022-08-16T02:47:10.591Z,72161.31
2022-08-16T02:48:28.606Z,72167.31
2022-08-16T02:48:52.851Z,72163.31
2022-08-16T02:49:58.428Z,72161.31
2022-08-16T02:50:54.412Z,72167.31
2022-08-16T02:51:16.772Z,72165.31
2022-08-16T02:51:50.346Z,72163.31
2022-08-16T02:52:24.678Z,72163.31
2022-08-16T02:53:09.425Z,72159.31
2022-08-16T02:53:45.218Z,72159.31
2022-08-16T02:54:18.382Z,72159.31
2022-08-16T02:54:55.878Z,72155.34
2022-08-16T02:55:40.750Z,72151.34
2022-08-16T02:56:21.038Z,72153.34
2022-08-16T02:56:53.390Z,72159.31
2022-08-16T02:57:26.628Z,72151.34
2022-08-16T02:57:59.445Z,72155.34
2022-08-16T02:58:35.185Z,72155.34
2022-08-16T02:59:11.777Z,72153.34
2022-08-16T02:59:47.819Z,72153.34
2022-08-16T03:00:33.799Z,72155.34
2022-08-16T03:01:25.407Z,72157.34
2022-08-16T03:02:08.227Z,72151.34
2022-08-16T03:02:42.368Z,72153.34
2022-08-16T03:03:18.598Z,72155.34
2022-08-16T03:04:49.502Z,72147.34
2022-08-16T03:04:52.093Z,72153.34
2022-08-16T03:05:31.077Z,72147.34
2022-08-16T03:06:38.930Z,72149.34
2022-08-16T03:07:06.708Z,72151.34
2022-08-16T03:07:50.530Z,72143.38
2022-08-16T03:08:49.774Z,72151.34
2022-08-16T03:09:23.715Z,72147.34
2022-08-16T03:10:00.931Z,72149.34
2022-08-16T03:10:41.576Z,72151.34
2022-08-16T03:11:23.255Z,72155.34
2022-08-16T03:11:56.269Z,72153.34
2022-08-16T03:12:37.867Z,72151.34
2022-08-16T03:13:26.665Z,72147.34
2022-08-16T03:14:04.682Z,72151.34
2022-08-16T03:14:40.011Z,72151.34
2022-08-16T03:15:22.401Z,72147.34
2022-08-16T03:16:00.113Z,72151.34
2022-08-16T03:16:42.019Z,72151.34
2022-08-16T03:17:32.388Z,72147.34
2022-08-16T03:18:12.556Z,72151.34
2022-08-16T03:19:06.360Z,72147.34
2022-08-16T03:19:46.967Z,72155.34
2022-08-16T03:20:32.285Z,72153.34
2022-08-16T03:21:10.120Z,72147.34
2022-08-16T03:21:43.180Z,72149.34
2022-08-16T03:22:28.767Z,72143.38
2022-08-16T03:23:04.721Z,72149.34
2022-08-16T03:23:37.749Z,72151.34
2022-08-16T03:24:28.727Z,72147.34
2022-08-16T03:25:07.311Z,72147.34
2022-08-16T03:25:44.674Z,72147.34
2022-08-16T03:26:18.694Z,72147.34
2022-08-16T03:26:57.878Z,72149.34
2022-08-16T03:27:34.651Z,72151.34
2022-08-16T03:28:10.239Z,72151.34
2022-08-16T03:28:46.814Z,72151.34
2022-08-16T03:29:19.364Z,72155.34
2022-08-16T03:29:54.896Z,72151.34
2022-08-16T03:30:33.969Z,72145.34
2022-08-16T03:31:09.981Z,72151.34
2022-08-16T03:31:42.597Z,72147.34
2022-08-16T03:32:18.858Z,72149.34
2022-08-16T03:32:52.703Z,72151.34
2022-08-16T03:33:29.919Z,72151.34
2022-08-16T03:34:06.280Z,72149.34
2022-08-16T03:34:38.627Z,72151.34
2022-08-16T03:35:11.129Z,72151.34
2022-08-16T03:35:46.169Z,72151.34
2022-08-16T03:36:31.032Z,72155.34
2022-08-16T03:37:09.150Z,72153.34
2022-08-16T03:38:02.944Z,72159.31
2022-08-16T03:38:47.518Z,72159.31
2022-08-16T03:39:22.132Z,72163.31
2022-08-16T03:39:56.752Z,72159.31
2022-08-16T03:40:40.027Z,72159.31
2022-08-16T03:41:14.082Z,72163.31
2022-08-16T03:42:00.408Z,72157.34
2022-08-16T03:43:18.619Z,72165.31
2022-08-16T03:43:50.603Z,72159.31
2022-08-16T03:44:44.571Z,72159.31
2022-08-16T03:45:25.761Z,72159.31
2022-08-16T03:46:06.560Z,72159.31
2022-08-16T03:46:48.240Z,72159.31
2022-08-16T03:47:30.590Z,72159.31
2022-08-16T03:48:10.422Z,72157.34
2022-08-16T03:48:49.405Z,72157.34
2022-08-16T03:49:36.472Z,72155.34
2022-08-16T03:50:25.888Z,72153.34
2022-08-16T03:51:00.704Z,72159.31
2022-08-16T03:51:39.629Z,72151.34
2022-08-16T03:52:14.377Z,72151.34
2022-08-16T03:52:49.324Z,72155.34
2022-08-16T03:53:25.967Z,72155.34
2022-08-16T03:54:12.673Z,72157.34
2022-08-16T03:54:53.189Z,72155.34
2022-08-16T03:55:28.945Z,72161.31
2022-08-16T03:56:21.160Z,72157.34
2022-08-16T03:56:57.205Z,72159.31
2022-08-16T03:57:35.734Z,72157.34
2022-08-16T03:58:16.789Z,72163.31
2022-08-16T03:58:50.860Z,72157.34
2022-08-16T03:59:25.106Z,72159.31
2022-08-16T04:00:00.561Z,72157.34
2022-08-16T04:00:46.070Z,72157.34
2022-08-16T04:01:29.154Z,72157.34
2022-08-16T04:02:07.202Z,72161.31
2022-08-16T04:02:48.332Z,72163.31
2022-08-16T04:03:24.274Z,72159.31
2022-08-16T04:03:59.345Z,72161.31
2022-08-16T04:04:34.352Z,72163.31
2022-08-16T04:05:10.657Z,72161.31
2022-08-16T04:05:51.245Z,72163.31
2022-08-16T04:06:26.719Z,72165.31
2022-08-16T04:06:59.817Z,72169.31
2022-08-16T04:07:35.120Z,72167.31
2022-08-16T04:08:22.941Z,72167.31
2022-08-16T04:09:01.301Z,72163.31
2022-08-16T04:09:37.914Z,72163.31
2022-08-16T04:10:36.912Z,72167.31
2022-08-16T04:11:08.821Z,72167.31
2022-08-16T04:11:42.709Z,72167.31
2022-08-16T04:12:53.244Z,72165.31
2022-08-16T04:13:20.684Z,72169.31
2022-08-16T04:14:31.112Z,72171.31
2022-08-16T04:15:02.599Z,72167.31
2022-08-16T04:15:38.417Z,72167.31
2022-08-16T04:16:29.003Z,72167.31
2022-08-16T04:17:09.924Z,72171.31
2022-08-16T04:17:43.491Z,72171.31
2022-08-16T04:18:19.517Z,72171.31
2022-08-16T04:18:52.479Z,72171.31
2022-08-16T04:19:31.870Z,72175.28
2022-08-16T04:20:23.809Z,72175.28
2022-08-16T04:21:04.712Z,72175.28
2022-08-16T04:21:45.639Z,72179.28
2022-08-16T04:22:21.245Z,72175.28
2022-08-16T04:23:07.990Z,72171.31
2022-08-16T04:23:43.551Z,72171.31
2022-08-16T04:24:16.006Z,72171.31
2022-08-16T04:24:54.306Z,72171.31
2022-08-16T04:25:28.753Z,72175.28
2022-08-16T04:26:04.310Z,72171.31
2022-08-16T04:26:46.043Z,72167.31
2022-08-16T04:27:19.505Z,72163.31
2022-08-16T04:27:55.947Z,72167.31
2022-08-16T04:28:53.380Z,72171.31
2022-08-16T04:29:27.936Z,72171.31
2022-08-16T04:30:32.391Z,72173.28
2022-08-16T04:31:11.360Z,72175.28
2022-08-16T04:31:56.129Z,72171.31
2022-08-16T04:32:35.505Z,72175.28
2022-08-16T04:33:09.746Z,72175.28
2022-08-16T04:33:51.025Z,72171.31
2022-08-16T04:34:30.628Z,72171.31
2022-08-16T04:35:08.385Z,72175.28
2022-08-16T04:35:49.413Z,72175.28
2022-08-16T04:36:25.097Z,72179.28
2022-08-16T04:37:01.307Z,72175.28
2022-08-16T04:37:42.207Z,72175.28
2022-08-16T04:38:24.206Z,72175.28
2022-08-16T04:39:02.034Z,72175.28
2022-08-16T04:39:46.563Z,72177.28
2022-08-16T04:40:25.216Z,72179.28
2022-08-16T04:41:01.467Z,72183.28
2022-08-16T04:41:37.361Z,72175.28
2022-08-16T04:42:12.786Z,72179.28
2022-08-16T04:42:48.382Z,72183.28
2022-08-16T04:43:23.675Z,72183.28
2022-08-16T04:44:01.421Z,72181.28
2022-08-16T04:44:53.736Z,72179.28
2022-08-16T04:45:36.123Z,72183.28
2022-08-16T04:46:19.816Z,72181.28
2022-08-16T04:47:21.453Z,72179.28
2022-08-16T04:47:57.558Z,72179.28
2022-08-16T04:48:32.471Z,72181.28
2022-08-16T04:49:11.149Z,72179.28
2022-08-16T04:49:46.076Z,72179.28
2022-08-16T04:50:30.437Z,72183.28
2022-08-16T04:51:23.306Z,72183.28
2022-08-16T04:51:58.251Z,72183.28
2022-08-16T04:52:35.861Z,72183.28
2022-08-16T04:53:09.502Z,72187.28
2022-08-16T04:53:50.419Z,72181.28
2022-08-16T04:54:24.806Z,72183.28
2022-08-16T04:54:58.843Z,72183.28
2022-08-16T04:55:38.013Z,72183.28
2022-08-16T04:56:11.923Z,72185.28
2022-08-16T04:56:46.226Z,72183.28
2022-08-16T04:57:21.570Z,72183.28
2022-08-16T04:57:55.031Z,72191.25
2022-08-16T04:58:44.646Z,72195.25
2022-08-16T04:59:23.453Z,72183.28
2022-08-16T04:59:57.829Z,72191.25
2022-08-16T05:00:36.140Z,72195.25
2022-08-16T05:01:15.486Z,72191.25
2022-08-16T05:01:58.277Z,72195.25
2022-08-16T05:02:55.948Z,72201.25
2022-08-16T05:03:27.721Z,72199.25
2022-08-16T05:04:01.730Z,72199.25
2022-08-16T05:04:57.109Z,72195.25
2022-08-16T05:05:32.746Z,72199.25
2022-08-16T05:06:09.874Z,72195.25
2022-08-16T05:06:45.027Z,72175.28
2022-08-16T05:07:37.520Z,72159.31
2022-08-16T05:08:34.130Z,72147.34
2022-08-16T05:09:23.375Z,72135.38
2022-08-16T05:10:02.161Z,72129.41
2022-08-16T05:10:35.030Z,72127.41
2022-08-16T05:11:09.059Z,72123.41
2022-08-16T05:11:44.134Z,72123.41
2022-08-16T05:12:18.213Z,72123.41
2022-08-16T05:12:58.181Z,72123.41
2022-08-16T05:13:39.947Z,72123.41
2022-08-16T05:14:20.230Z,72127.41
2022-08-16T05:15:12.301Z,72123.41
2022-08-16T05:15:49.778Z,72123.41
2022-08-16T05:16:27.698Z,72121.41
2022-08-16T05:17:16.942Z,72119.41
2022-08-16T05:17:59.660Z,72119.41
2022-08-16T05:18:43.073Z,72121.41
2022-08-16T05:19:16.519Z,72113.44
2022-08-16T05:20:35.622Z,72123.41
2022-08-16T05:21:09.591Z,72119.41
2022-08-16T05:21:48.014Z,72115.44
2022-08-16T05:22:24.446Z,72123.41
2022-08-16T05:23:01.710Z,72119.41
2022-08-16T05:23:38.654Z,72123.41
2022-08-16T05:24:11.489Z,72129.41
2022-08-16T05:24:47.855Z,72123.41
2022-08-16T05:25:20.450Z,72123.41
2022-08-16T05:25:59.868Z,72127.41
2022-08-16T05:26:36.221Z,72123.41
2022-08-16T05:27:11.556Z,72127.41
2022-08-16T05:27:45.363Z,72123.41
2022-08-16T05:28:37.469Z,72123.41
2022-08-16T05:29:14.672Z,72127.41
2022-08-16T05:30:02.946Z,72123.41
2022-08-16T05:30:54.590Z,72123.41
2022-08-16T05:31:33.250Z,72123.41
2022-08-16T05:32:31.970Z,72127.41
2022-08-16T05:33:03.425Z,72127.41
2022-08-16T05:33:36.950Z,72127.41
2022-08-16T05:34:21.476Z,72127.41
2022-08-16T05:34:56.654Z,72125.41
2022-08-16T05:35:29.107Z,72131.38
2022-08-16T05:36:35.831Z,72127.41
2022-08-16T05:37:10.319Z,72127.41
2022-08-16T05:37:44.683Z,72135.38
2022-08-16T05:38:32.447Z,72127.41
2022-08-16T05:39:10.054Z,72133.38
2022-08-16T05:39:46.687Z,72135.38
2022-08-16T05:40:19.670Z,72135.38
2022-08-16T05:40:59.800Z,72133.38
2022-08-16T05:41:45.350Z,72135.38
2022-08-16T05:42:19.721Z,72139.38
2022-08-16T05:42:55.997Z,72129.41
2022-08-16T05:43:32.039Z,72131.38
2022-08-16T05:44:23.555Z,72135.38
2022-08-16T05:44:58.606Z,72135.38
2022-08-16T05:45:31.154Z,72137.38
2022-08-16T05:46:29.952Z,72133.38
2022-08-16T05:47:10.982Z,72141.38
2022-08-16T05:48:00.398Z,72141.38
2022-08-16T05:48:55.021Z,72143.38
2022-08-16T05:49:38.238Z,72143.38
2022-08-16T05:50:19.015Z,72147.34
2022-08-16T05:50:52.989Z,72151.34
2022-08-16T05:51:38.306Z,72147.34
2022-08-16T05:52:13.413Z,72151.34
2022-08-16T05:52:50.503Z,72155.34
2022-08-16T05:53:24.334Z,72157.34
2022-08-16T05:54:26.573Z,72155.34
2022-08-16T05:55:02.683Z,72157.34
2022-08-16T05:55:40.652Z,72155.34
2022-08-16T05:56:19.357Z,72159.31
2022-08-16T05:56:54.575Z,72155.34
2022-08-16T05:57:34.613Z,72157.34
2022-08-16T05:58:08.218Z,72155.34
2022-08-16T05:58:41.995Z,72163.31
2022-08-16T05:59:22.070Z,72159.31
2022-08-16T06:00:00.238Z,72163.31
2022-08-16T06:00:44.552Z,72163.31
2022-08-16T06:01:26.649Z,72165.31
2022-08-16T06:02:06.050Z,72167.31
2022-08-16T06:02:43.475Z,72167.31
2022-08-16T06:03:39.858Z,72167.31
2022-08-16T06:04:36.506Z,72163.31
2022-08-16T06:05:17.710Z,72165.31
2022-08-16T06:05:53.617Z,72165.31
2022-08-16T06:06:28.047Z,72167.31
2022-08-16T06:07:07.044Z,72163.31
2022-08-16T06:07:45.099Z,72161.31
2022-08-16T06:08:42.379Z,72165.31
2022-08-16T06:09:23.154Z,72167.31
2022-08-16T06:09:59.867Z,72167.31
2022-08-16T06:10:36.793Z,72163.31
2022-08-16T06:11:11.290Z,72163.31
2022-08-16T06:11:50.382Z,72161.31
2022-08-16T06:12:26.970Z,72167.31
2022-08-16T06:13:04.241Z,72163.31
2022-08-16T06:13:42.023Z,72163.31
2022-08-16T06:14:17.506Z,72163.31
2022-08-16T06:14:51.296Z,72167.31
2022-08-16T06:15:28.368Z,72167.31
2022-08-16T06:16:03.781Z,72173.28
2022-08-16T06:16:44.142Z,72167.31
2022-08-16T06:17:16.590Z,72171.31
2022-08-16T06:17:51.828Z,72171.31
2022-08-16T06:18:30.314Z,72171.31
2022-08-16T06:19:04.912Z,72171.31
2022-08-16T06:19:42.768Z,72171.31
2022-08-16T06:20:34.902Z,72175.28
2022-08-16T06:21:22.681Z,72171.31
2022-08-16T06:22:01.194Z,72169.31
2022-08-16T06:22:39.465Z,72173.28
2022-08-16T06:23:17.761Z,72171.31
2022-08-16T06:24:52.880Z,72171.31
2022-08-16T06:25:08.529Z,72175.28
2022-08-16T06:25:44.781Z,72175.28
2022-08-16T06:26:34.726Z,72179.28
2022-08-16T06:27:13.820Z,72183.28
2022-08-16T06:27:57.544Z,72185.28
2022-08-16T06:28:37.358Z,72185.28
2022-08-16T06:29:15.273Z,72185.28
2022-08-16T06:29:49.926Z,72185.28
2022-08-16T06:30:28.859Z,72191.25
2022-08-16T06:31:01.997Z,72187.28
2022-08-16T06:31:46.693Z,72191.25
2022-08-16T06:32:26.956Z,72185.28
2022-08-16T06:33:03.983Z,72183.28
2022-08-16T06:33:41.779Z,72183.28
2022-08-16T06:34:55.033Z,72187.28
2022-08-16T06:35:13.710Z,72185.28
2022-08-16T06:35:47.132Z,72187.28
2022-08-16T06:36:24.165Z,72189.25
2022-08-16T06:37:19.400Z,72187.28
2022-08-16T06:37:54.787Z,72187.28
2022-08-16T06:38:32.825Z,72179.28
2022-08-16T06:39:11.421Z,72183.28
2022-08-16T06:39:53.816Z,72179.28
2022-08-16T06:40:40.519Z,72183.28
2022-08-16T06:41:21.566Z,72181.28
2022-08-16T06:41:57.221Z,72183.28
2022-08-16T06:42:48.602Z,72181.28
2022-08-16T06:43:41.925Z,72175.28
2022-08-16T06:44:20.943Z,72179.28
2022-08-16T06:44:55.059Z,72183.28
2022-08-16T06:45:47.130Z,72179.28
2022-08-16T06:46:31.559Z,72183.28
2022-08-16T06:47:08.483Z,72183.28
2022-08-16T06:47:53.245Z,72183.28
2022-08-16T06:48:34.082Z,72183.28
2022-08-16T06:49:10.913Z,72183.28
2022-08-16T06:49:43.533Z,72187.28
2022-08-16T06:50:29.981Z,72183.28
2022-08-16T06:51:07.370Z,72187.28
2022-08-16T06:51:45.901Z,72183.28
2022-08-16T06:53:00.007Z,72189.25
2022-08-16T06:53:19.778Z,72187.28
2022-08-16T06:54:08.310Z,72187.28
2022-08-16T06:54:46.595Z,72187.28
2022-08-16T06:55:23.029Z,72183.28
2022-08-16T06:56:14.205Z,72187.28
2022-08-16T06:57:03.842Z,72183.28
2022-08-16T06:57:40.333Z,72187.28
2022-08-16T06:58:22.861Z,72183.28
2022-08-16T06:59:15.462Z,72183.28
2022-08-16T06:59:58.528Z,72183.28
2022-08-16T07:00:43.025Z,72179.28
2022-08-16T07:01:20.161Z,72179.28
2022-08-16T07:01:59.793Z,72177.28
2022-08-16T07:02:33.990Z,72179.28
2022-08-16T07:03:26.441Z,72181.28
2022-08-16T07:04:03.681Z,72177.28
2022-08-16T07:04:44.625Z,72171.31
2022-08-16T07:05:27.351Z,72171.31
2022-08-16T07:06:21.844Z,72169.31
2022-08-16T07:07:03.471Z,72171.31
2022-08-16T07:07:36.691Z,72173.28
2022-08-16T07:08:11.707Z,72167.31
2022-08-16T07:08:48.909Z,72167.31
2022-08-16T07:09:21.555Z,72175.28
2022-08-16T07:09:57.569Z,72177.28
2022-08-16T07:10:31.203Z,72179.28
2022-08-16T07:11:03.652Z,72179.28
2022-08-16T07:11:45.542Z,72179.28
2022-08-16T07:12:19.583Z,72177.28
2022-08-16T07:13:04.525Z,72179.28
2022-08-16T07:14:00.360Z,72183.28
2022-08-16T07:14:49.189Z,72187.28
2022-08-16T07:15:26.539Z,72177.28
2022-08-16T07:16:01.086Z,72183.28
2022-08-16T07:16:34.694Z,72179.28
2022-08-16T07:17:12.928Z,72179.28
2022-08-16T07:17:53.589Z,72183.28
2022-08-16T07:18:28.833Z,72183.28
2022-08-16T07:19:04.001Z,72181.28
2022-08-16T07:20:29.239Z,72181.28
2022-08-16T07:20:47.701Z,72183.28
2022-08-16T07:21:22.529Z,72185.28
2022-08-16T07:21:59.569Z,72179.28
2022-08-16T07:22:38.230Z,72179.28
2022-08-16T07:23:18.949Z,72181.28
2022-08-16T07:24:06.167Z,72179.28
2022-08-16T07:24:45.677Z,72177.28
2022-08-16T07:25:18.589Z,72179.28
2022-08-16T07:25:54.567Z,72175.28
2022-08-16T07:26:30.149Z,72175.28
2022-08-16T07:27:08.497Z,72175.28
2022-08-16T07:27:42.659Z,72177.28
2022-08-16T07:28:24.376Z,72175.28
2022-08-16T07:28:59.779Z,72175.28
2022-08-16T07:29:32.223Z,72179.28
2022-08-16T07:30:39.673Z,72179.28
2022-08-16T07:31:06.131Z,72179.28
2022-08-16T07:31:51.135Z,72179.28
2022-08-16T07:32:29.178Z,72179.28
2022-08-16T07:33:02.461Z,72183.28
2022-08-16T07:33:52.446Z,72179.28
2022-08-16T07:34:35.128Z,72183.28
2022-08-16T07:35:11.621Z,72183.28
2022-08-16T07:35:49.738Z,72177.28
2022-08-16T07:36:26.775Z,72179.28
2022-08-16T07:37:05.539Z,72179.28
2022-08-16T07:37:57.719Z,72181.28
2022-08-16T07:38:48.017Z,72183.28
2022-08-16T07:39:25.345Z,72183.28
2022-08-16T07:40:11.522Z,72183.28
2022-08-16T07:40:59.470Z,72181.28
2022-08-16T07:41:34.474Z,72183.28
2022-08-16T07:42:20.121Z,72191.25
2022-08-16T07:42:58.796Z,72181.28
2022-08-16T07:43:34.045Z,72179.28
2022-08-16T07:44:16.347Z,72179.28
2022-08-16T07:44:50.971Z,72185.28
2022-08-16T07:45:26.501Z,72177.28
2022-08-16T07:46:06.365Z,72179.28
2022-08-16T07:47:01.347Z,72179.28
2022-08-16T07:47:34.808Z,72177.28
2022-08-16T07:48:11.276Z,72179.28
2022-08-16T07:48:52.689Z,72183.28
2022-08-16T07:49:32.560Z,72183.28
2022-08-16T07:50:08.286Z,72183.28
2022-08-16T07:51:08.845Z,72183.28